sensor_id;sensor_type;location;lat;lon;timestamp;P1;durP1;ratioP1;P2;durP2;ratioP2
22026;SDS011;11177;50.966;10.070;2023-02-03T00:01:49;13.95;;;9.40;;
22026;SDS011;11177;50.966;10.070;2023-02-03T00:04:16;16.05;;;9.40;;
22026;SDS011;11177;50.966;10.070;2023-02-03T00:06:42;14.40;;;9.60;;
22026;SDS011;11177;50.966;10.070;2023-02-03T00:09:09;13.10;;;8.57;;
22026;SDS011;11177;50.966;10.070;2023-02-03T00:11:36;15.50;;;8.35;;
22026;SDS011;11177;50.966;10.070;2023-02-03T00:14:03;12.63;;;8.82;;
22026;SDS011;11177;50.966;10.070;2023-02-03T00:16:30;13.20;;;8.73;;
22026;SDS011;11177;50.966;10.070;2023-02-03T00:18:57;12.55;;;8.68;;
22026;SDS011;11177;50.966;10.070;2023-02-03T00:21:24;14.82;;;8.50;;
22026;SDS011;11177;50.966;10.070;2023-02-03T00:23:51;12.43;;;8.45;;
22026;SDS011;11177;50.966;10.070;2023-02-03T00:26:17;12.95;;;8.27;;
22026;SDS011;11177;50.966;10.070;2023-02-03T00:28:44;16.13;;;9.35;;
22026;SDS011;11177;50.966;10.070;2023-02-03T00:31:18;15.05;;;8.75;;
22026;SDS011;11177;50.966;10.070;2023-02-03T00:33:47;12.45;;;8.60;;
22026;SDS011;11177;50.966;10.070;2023-02-03T00:36:14;15.75;;;9.38;;
22026;SDS011;11177;50.966;10.070;2023-02-03T00:38:40;12.95;;;8.98;;
22026;SDS011;11177;50.966;10.070;2023-02-03T00:41:07;14.90;;;9.70;;
22026;SDS011;11177;50.966;10.070;2023-02-03T00:43:34;16.25;;;10.30;;
22026;SDS011;11177;50.966;10.070;2023-02-03T00:46:00;16.48;;;9.40;;
22026;SDS011;11177;50.966;10.070;2023-02-03T00:48:28;21.17;;;10.65;;
22026;SDS011;11177;50.966;10.070;2023-02-03T00:50:55;14.70;;;10.00;;
22026;SDS011;11177;50.966;10.070;2023-02-03T00:53:21;18.65;;;10.68;;
22026;SDS011;11177;50.966;10.070;2023-02-03T00:55:48;16.30;;;11.15;;
22026;SDS011;11177;50.966;10.070;2023-02-03T00:58:15;20.55;;;11.35;;
22026;SDS011;11177;50.966;10.070;2023-02-03T01:00:41;17.60;;;10.65;;
22026;SDS011;11177;50.966;10.070;2023-02-03T01:03:08;18.67;;;11.18;;
22026;SDS011;11177;50.966;10.070;2023-02-03T01:05:35;17.85;;;11.38;;
22026;SDS011;11177;50.966;10.070;2023-02-03T01:08:03;16.73;;;10.68;;
22026;SDS011;11177;50.966;10.070;2023-02-03T01:10:30;18.05;;;11.55;;
22026;SDS011;11177;50.966;10.070;2023-02-03T01:12:56;15.70;;;10.15;;
22026;SDS011;11177;50.966;10.070;2023-02-03T01:15:23;17.08;;;10.43;;
22026;SDS011;11177;50.966;10.070;2023-02-03T01:17:50;15.93;;;10.25;;
22026;SDS011;11177;50.966;10.070;2023-02-03T01:20:16;14.27;;;9.90;;
22026;SDS011;11177;50.966;10.070;2023-02-03T01:22:43;14.98;;;10.23;;
22026;SDS011;11177;50.966;10.070;2023-02-03T01:25:10;15.23;;;10.23;;
22026;SDS011;11177;50.966;10.070;2023-02-03T01:27:37;16.30;;;10.10;;
22026;SDS011;11177;50.966;10.070;2023-02-03T01:30:04;15.57;;;10.63;;
22026;SDS011;11177;50.966;10.070;2023-02-03T01:32:30;16.23;;;10.30;;
22026;SDS011;11177;50.966;10.070;2023-02-03T01:34:57;16.40;;;10.38;;
22026;SDS011;11177;50.966;10.070;2023-02-03T01:37:24;16.90;;;10.63;;
22026;SDS011;11177;50.966;10.070;2023-02-03T01:39:50;16.73;;;10.60;;
22026;SDS011;11177;50.966;10.070;2023-02-03T01:42:17;17.88;;;11.07;;
22026;SDS011;11177;50.966;10.070;2023-02-03T01:44:48;16.67;;;10.88;;
22026;SDS011;11177;50.966;10.070;2023-02-03T01:52:57;18.13;;;11.55;;
22026;SDS011;11177;50.966;10.070;2023-02-03T01:55:36;19.40;;;11.38;;
22026;SDS011;11177;50.966;10.070;2023-02-03T01:58:08;18.60;;;11.20;;
22026;SDS011;11177;50.966;10.070;2023-02-03T02:00:51;14.65;;;10.77;;
22026;SDS011;11177;50.966;10.070;2023-02-03T02:03:19;17.50;;;11.38;;
22026;SDS011;11177;50.966;10.070;2023-02-03T02:05:47;18.33;;;11.50;;
22026;SDS011;11177;50.966;10.070;2023-02-03T02:08:16;16.45;;;11.23;;
22026;SDS011;11177;50.966;10.070;2023-02-03T02:10:44;14.57;;;11.10;;
22026;SDS011;11177;50.966;10.070;2023-02-03T02:13:11;16.15;;;10.75;;
22026;SDS011;11177;50.966;10.070;2023-02-03T02:15:42;19.13;;;11.48;;
22026;SDS011;11177;50.966;10.070;2023-02-03T02:21:33;15.85;;;10.07;;
22026;SDS011;11177;50.966;10.070;2023-02-03T02:24:24;17.48;;;10.45;;
22026;SDS011;11177;50.966;10.070;2023-02-03T02:36:19;16.40;;;10.15;;
22026;SDS011;11177;50.966;10.070;2023-02-03T02:38:57;17.02;;;10.02;;
22026;SDS011;11177;50.966;10.070;2023-02-03T02:44:29;18.17;;;10.45;;
22026;SDS011;11177;50.966;10.070;2023-02-03T02:47:17;15.48;;;9.38;;
22026;SDS011;11177;50.966;10.070;2023-02-03T02:49:49;16.40;;;9.90;;
22026;SDS011;11177;50.966;10.070;2023-02-03T02:54:48;16.27;;;9.35;;
22026;SDS011;11177;50.966;10.070;2023-02-03T02:57:18;17.08;;;9.70;;
22026;SDS011;11177;50.966;10.070;2023-02-03T02:59:46;15.02;;;10.05;;
22026;SDS011;11177;50.966;10.070;2023-02-03T03:02:13;17.30;;;9.75;;
22026;SDS011;11177;50.966;10.070;2023-02-03T03:04:40;18.08;;;9.57;;
22026;SDS011;11177;50.966;10.070;2023-02-03T03:07:09;15.70;;;10.05;;
22026;SDS011;11177;50.966;10.070;2023-02-03T03:09:40;16.13;;;10.02;;
22026;SDS011;11177;50.966;10.070;2023-02-03T03:12:13;14.75;;;9.02;;
22026;SDS011;11177;50.966;10.070;2023-02-03T03:14:44;13.50;;;8.85;;
22026;SDS011;11177;50.966;10.070;2023-02-03T03:17:13;17.05;;;9.18;;
22026;SDS011;11177;50.966;10.070;2023-02-03T03:20:04;18.65;;;9.23;;
22026;SDS011;11177;50.966;10.070;2023-02-03T03:22:34;14.45;;;7.97;;
22026;SDS011;11177;50.966;10.070;2023-02-03T03:25:05;13.35;;;8.32;;
22026;SDS011;11177;50.966;10.070;2023-02-03T03:27:38;14.68;;;8.32;;
22026;SDS011;11177;50.966;10.070;2023-02-03T03:30:10;14.02;;;7.75;;
22026;SDS011;11177;50.966;10.070;2023-02-03T03:32:51;14.98;;;8.43;;
22026;SDS011;11177;50.966;10.070;2023-02-03T03:35:18;14.23;;;8.40;;
22026;SDS011;11177;50.966;10.070;2023-02-03T03:37:48;12.20;;;7.60;;
22026;SDS011;11177;50.966;10.070;2023-02-03T03:43:27;10.93;;;7.32;;
22026;SDS011;11177;50.966;10.070;2023-02-03T03:46:00;8.35;;;6.18;;
22026;SDS011;11177;50.966;10.070;2023-02-03T03:51:51;9.20;;;6.45;;
22026;SDS011;11177;50.966;10.070;2023-02-03T03:54:22;11.07;;;6.43;;
22026;SDS011;11177;50.966;10.070;2023-02-03T03:58:13;13.30;;;6.78;;
22026;SDS011;11177;50.966;10.070;2023-02-03T03:59:50;11.23;;;6.82;;
22026;SDS011;11177;50.966;10.070;2023-02-03T04:02:17;8.68;;;6.75;;
22026;SDS011;11177;50.966;10.070;2023-02-03T04:04:45;11.63;;;6.72;;
22026;SDS011;11177;50.966;10.070;2023-02-03T04:07:13;12.93;;;7.50;;
22026;SDS011;11177;50.966;10.070;2023-02-03T04:09:40;12.02;;;6.57;;
22026;SDS011;11177;50.966;10.070;2023-02-03T04:12:12;10.60;;;6.55;;
22026;SDS011;11177;50.966;10.070;2023-02-03T04:14:41;10.05;;;6.43;;
22026;SDS011;11177;50.966;10.070;2023-02-03T04:17:08;9.38;;;6.50;;
22026;SDS011;11177;50.966;10.070;2023-02-03T04:19:35;12.63;;;6.53;;
22026;SDS011;11177;50.966;10.070;2023-02-03T04:22:01;9.55;;;6.40;;
22026;SDS011;11177;50.966;10.070;2023-02-03T04:24:28;8.55;;;6.70;;
22026;SDS011;11177;50.966;10.070;2023-02-03T04:26:55;8.15;;;6.38;;
22026;SDS011;11177;50.966;10.070;2023-02-03T04:29:22;11.35;;;6.40;;
22026;SDS011;11177;50.966;10.070;2023-02-03T04:31:48;13.52;;;6.60;;
22026;SDS011;11177;50.966;10.070;2023-02-03T04:34:15;11.35;;;7.43;;
22026;SDS011;11177;50.966;10.070;2023-02-03T04:36:42;9.43;;;6.97;;
22026;SDS011;11177;50.966;10.070;2023-02-03T04:39:09;9.90;;;6.82;;
22026;SDS011;11177;50.966;10.070;2023-02-03T04:41:35;11.10;;;6.60;;
22026;SDS011;11177;50.966;10.070;2023-02-03T04:44:02;11.65;;;7.00;;
22026;SDS011;11177;50.966;10.070;2023-02-03T04:46:29;9.68;;;6.72;;
22026;SDS011;11177;50.966;10.070;2023-02-03T04:48:56;9.98;;;7.05;;
22026;SDS011;11177;50.966;10.070;2023-02-03T04:51:22;8.82;;;6.45;;
22026;SDS011;11177;50.966;10.070;2023-02-03T04:53:49;11.23;;;6.80;;
22026;SDS011;11177;50.966;10.070;2023-02-03T04:56:16;11.73;;;7.35;;
22026;SDS011;11177;50.966;10.070;2023-02-03T04:58:42;12.50;;;7.10;;
22026;SDS011;11177;50.966;10.070;2023-02-03T05:01:09;10.82;;;6.70;;
22026;SDS011;11177;50.966;10.070;2023-02-03T05:03:36;11.43;;;6.90;;
22026;SDS011;11177;50.966;10.070;2023-02-03T05:06:03;8.70;;;6.00;;
22026;SDS011;11177;50.966;10.070;2023-02-03T05:08:30;8.70;;;6.32;;
22026;SDS011;11177;50.966;10.070;2023-02-03T05:10:57;8.77;;;6.03;;
22026;SDS011;11177;50.966;10.070;2023-02-03T05:13:27;10.35;;;5.82;;
22026;SDS011;11177;50.966;10.070;2023-02-03T05:15:54;12.02;;;5.88;;
22026;SDS011;11177;50.966;10.070;2023-02-03T05:18:21;8.80;;;5.57;;
22026;SDS011;11177;50.966;10.070;2023-02-03T05:20:48;10.38;;;5.72;;
22026;SDS011;11177;50.966;10.070;2023-02-03T05:23:14;8.50;;;5.40;;
22026;SDS011;11177;50.966;10.070;2023-02-03T05:25:42;10.10;;;5.47;;
22026;SDS011;11177;50.966;10.070;2023-02-03T05:28:09;11.60;;;5.75;;
22026;SDS011;11177;50.966;10.070;2023-02-03T05:30:36;8.98;;;5.30;;
22026;SDS011;11177;50.966;10.070;2023-02-03T05:33:02;8.25;;;5.38;;
22026;SDS011;11177;50.966;10.070;2023-02-03T05:35:29;10.00;;;5.40;;
22026;SDS011;11177;50.966;10.070;2023-02-03T05:37:56;7.40;;;5.10;;
22026;SDS011;11177;50.966;10.070;2023-02-03T05:40:22;8.52;;;5.50;;
22026;SDS011;11177;50.966;10.070;2023-02-03T05:43:07;6.97;;;4.78;;
22026;SDS011;11177;50.966;10.070;2023-02-03T05:45:34;9.27;;;4.82;;
22026;SDS011;11177;50.966;10.070;2023-02-03T05:48:01;10.32;;;5.10;;
22026;SDS011;11177;50.966;10.070;2023-02-03T05:50:29;7.88;;;4.75;;
22026;SDS011;11177;50.966;10.070;2023-02-03T05:53:03;7.95;;;4.95;;
22026;SDS011;11177;50.966;10.070;2023-02-03T05:55:31;8.18;;;5.00;;
22026;SDS011;11177;50.966;10.070;2023-02-03T05:57:59;9.88;;;5.30;;
22026;SDS011;11177;50.966;10.070;2023-02-03T06:00:26;8.27;;;4.57;;
22026;SDS011;11177;50.966;10.070;2023-02-03T06:02:55;7.68;;;5.07;;
22026;SDS011;11177;50.966;10.070;2023-02-03T06:05:23;9.20;;;5.50;;
22026;SDS011;11177;50.966;10.070;2023-02-03T06:07:51;8.75;;;4.80;;
22026;SDS011;11177;50.966;10.070;2023-02-03T06:10:18;6.82;;;5.10;;
22026;SDS011;11177;50.966;10.070;2023-02-03T06:12:45;6.20;;;4.50;;
22026;SDS011;11177;50.966;10.070;2023-02-03T06:15:12;8.73;;;4.70;;
22026;SDS011;11177;50.966;10.070;2023-02-03T06:17:42;8.20;;;4.60;;
22026;SDS011;11177;50.966;10.070;2023-02-03T06:20:12;9.43;;;4.90;;
22026;SDS011;11177;50.966;10.070;2023-02-03T06:22:40;6.90;;;4.70;;
22026;SDS011;11177;50.966;10.070;2023-02-03T06:25:08;7.70;;;5.13;;
22026;SDS011;11177;50.966;10.070;2023-02-03T06:27:38;12.18;;;5.18;;
22026;SDS011;11177;50.966;10.070;2023-02-03T06:30:05;6.63;;;4.80;;
22026;SDS011;11177;50.966;10.070;2023-02-03T06:32:33;8.25;;;4.80;;
22026;SDS011;11177;50.966;10.070;2023-02-03T06:35:00;9.02;;;4.50;;
22026;SDS011;11177;50.966;10.070;2023-02-03T06:37:27;8.77;;;4.60;;
22026;SDS011;11177;50.966;10.070;2023-02-03T06:39:53;5.15;;;4.55;;
22026;SDS011;11177;50.966;10.070;2023-02-03T06:42:20;6.78;;;4.22;;
22026;SDS011;11177;50.966;10.070;2023-02-03T06:44:47;8.27;;;4.10;;
22026;SDS011;11177;50.966;10.070;2023-02-03T06:47:14;9.13;;;4.60;;
22026;SDS011;11177;50.966;10.070;2023-02-03T06:49:40;8.15;;;4.63;;
22026;SDS011;11177;50.966;10.070;2023-02-03T06:52:07;6.40;;;3.90;;
22026;SDS011;11177;50.966;10.070;2023-02-03T06:54:34;8.85;;;4.03;;
22026;SDS011;11177;50.966;10.070;2023-02-03T06:57:01;8.40;;;3.80;;
22026;SDS011;11177;50.966;10.070;2023-02-03T06:59:29;7.78;;;3.75;;
22026;SDS011;11177;50.966;10.070;2023-02-03T07:01:55;5.50;;;3.60;;
22026;SDS011;11177;50.966;10.070;2023-02-03T07:04:22;7.47;;;3.65;;
22026;SDS011;11177;50.966;10.070;2023-02-03T07:06:49;8.05;;;4.05;;
22026;SDS011;11177;50.966;10.070;2023-02-03T07:09:16;8.45;;;3.75;;
22026;SDS011;11177;50.966;10.070;2023-02-03T07:11:42;10.27;;;4.05;;
22026;SDS011;11177;50.966;10.070;2023-02-03T07:14:09;6.28;;;3.80;;
22026;SDS011;11177;50.966;10.070;2023-02-03T07:16:36;9.32;;;4.05;;
22026;SDS011;11177;50.966;10.070;2023-02-03T07:19:03;10.13;;;4.20;;
22026;SDS011;11177;50.966;10.070;2023-02-03T07:21:29;7.82;;;3.90;;
22026;SDS011;11177;50.966;10.070;2023-02-03T07:23:56;11.10;;;4.07;;
22026;SDS011;11177;50.966;10.070;2023-02-03T07:26:23;6.10;;;3.92;;
22026;SDS011;11177;50.966;10.070;2023-02-03T07:28:51;9.85;;;4.47;;
22026;SDS011;11177;50.966;10.070;2023-02-03T07:31:19;6.47;;;4.03;;
22026;SDS011;11177;50.966;10.070;2023-02-03T07:33:47;7.07;;;4.18;;
22026;SDS011;11177;50.966;10.070;2023-02-03T07:36:14;5.97;;;4.05;;
22026;SDS011;11177;50.966;10.070;2023-02-03T07:38:41;11.00;;;4.30;;
22026;SDS011;11177;50.966;10.070;2023-02-03T07:41:07;4.63;;;3.85;;
22026;SDS011;11177;50.966;10.070;2023-02-03T07:43:34;7.30;;;4.55;;
22026;SDS011;11177;50.966;10.070;2023-02-03T07:46:01;8.73;;;4.40;;
22026;SDS011;11177;50.966;10.070;2023-02-03T07:48:28;6.10;;;4.03;;
22026;SDS011;11177;50.966;10.070;2023-02-03T07:50:54;6.85;;;4.13;;
22026;SDS011;11177;50.966;10.070;2023-02-03T07:53:21;6.28;;;3.83;;
22026;SDS011;11177;50.966;10.070;2023-02-03T07:55:48;6.07;;;4.00;;
22026;SDS011;11177;50.966;10.070;2023-02-03T07:58:14;6.43;;;4.07;;
22026;SDS011;11177;50.966;10.070;2023-02-03T08:00:42;7.90;;;3.88;;
22026;SDS011;11177;50.966;10.070;2023-02-03T08:03:09;7.85;;;3.80;;
22026;SDS011;11177;50.966;10.070;2023-02-03T08:05:35;7.85;;;3.83;;
22026;SDS011;11177;50.966;10.070;2023-02-03T08:08:02;7.97;;;4.25;;
22026;SDS011;11177;50.966;10.070;2023-02-03T08:10:29;6.60;;;3.97;;
22026;SDS011;11177;50.966;10.070;2023-02-03T08:12:56;5.85;;;4.22;;
22026;SDS011;11177;50.966;10.070;2023-02-03T08:15:23;6.60;;;4.03;;
22026;SDS011;11177;50.966;10.070;2023-02-03T08:17:50;8.13;;;4.43;;
22026;SDS011;11177;50.966;10.070;2023-02-03T08:20:17;7.47;;;4.15;;
22026;SDS011;11177;50.966;10.070;2023-02-03T08:22:43;8.52;;;4.63;;
22026;SDS011;11177;50.966;10.070;2023-02-03T08:25:11;8.98;;;4.00;;
22026;SDS011;11177;50.966;10.070;2023-02-03T08:27:38;7.75;;;4.00;;
22026;SDS011;11177;50.966;10.070;2023-02-03T08:30:06;10.82;;;3.83;;
22026;SDS011;11177;50.966;10.070;2023-02-03T08:32:35;8.90;;;4.25;;
22026;SDS011;11177;50.966;10.070;2023-02-03T08:35:02;7.38;;;4.00;;
22026;SDS011;11177;50.966;10.070;2023-02-03T08:37:29;6.40;;;4.13;;
22026;SDS011;11177;50.966;10.070;2023-02-03T08:39:58;7.95;;;4.22;;
22026;SDS011;11177;50.966;10.070;2023-02-03T08:42:25;6.45;;;3.90;;
22026;SDS011;11177;50.966;10.070;2023-02-03T08:44:52;9.13;;;4.05;;
22026;SDS011;11177;50.966;10.070;2023-02-03T08:47:19;10.80;;;4.10;;
22026;SDS011;11177;50.966;10.070;2023-02-03T08:49:46;9.35;;;4.15;;
22026;SDS011;11177;50.966;10.070;2023-02-03T08:52:13;7.63;;;4.28;;
22026;SDS011;11177;50.966;10.070;2023-02-03T08:54:43;9.02;;;4.50;;
22026;SDS011;11177;50.966;10.070;2023-02-03T08:57:10;7.75;;;4.15;;
22026;SDS011;11177;50.966;10.070;2023-02-03T08:59:37;8.05;;;4.20;;
22026;SDS011;11177;50.966;10.070;2023-02-03T09:02:06;9.10;;;4.43;;
22026;SDS011;11177;50.966;10.070;2023-02-03T09:04:36;9.25;;;4.55;;
22026;SDS011;11177;50.966;10.070;2023-02-03T09:07:03;9.30;;;4.90;;
22026;SDS011;11177;50.966;10.070;2023-02-03T09:09:29;9.02;;;4.20;;
22026;SDS011;11177;50.966;10.070;2023-02-03T09:11:57;9.05;;;4.50;;
22026;SDS011;11177;50.966;10.070;2023-02-03T09:14:28;7.65;;;3.90;;
22026;SDS011;11177;50.966;10.070;2023-02-03T09:16:55;10.05;;;4.50;;
22026;SDS011;11177;50.966;10.070;2023-02-03T09:19:22;6.93;;;4.68;;
22026;SDS011;11177;50.966;10.070;2023-02-03T09:21:49;7.72;;;4.35;;
22026;SDS011;11177;50.966;10.070;2023-02-03T09:24:16;6.68;;;4.13;;
22026;SDS011;11177;50.966;10.070;2023-02-03T09:26:44;8.05;;;3.92;;
22026;SDS011;11177;50.966;10.070;2023-02-03T09:29:11;8.20;;;4.22;;
22026;SDS011;11177;50.966;10.070;2023-02-03T09:31:38;5.70;;;4.45;;
22026;SDS011;11177;50.966;10.070;2023-02-03T09:34:05;8.77;;;4.10;;
22026;SDS011;11177;50.966;10.070;2023-02-03T09:36:32;8.98;;;4.10;;
22026;SDS011;11177;50.966;10.070;2023-02-03T09:38:59;5.78;;;3.95;;
22026;SDS011;11177;50.966;10.070;2023-02-03T09:44:16;8.55;;;4.45;;
22026;SDS011;11177;50.966;10.070;2023-02-03T09:47:04;5.50;;;4.05;;
22026;SDS011;11177;50.966;10.070;2023-02-03T09:49:44;7.18;;;4.82;;
22026;SDS011;11177;50.966;10.070;2023-02-03T09:52:17;8.43;;;4.93;;
22026;SDS011;11177;50.966;10.070;2023-02-03T09:54:58;8.75;;;4.95;;
22026;SDS011;11177;50.966;10.070;2023-02-03T09:57:28;8.55;;;4.80;;
22026;SDS011;11177;50.966;10.070;2023-02-03T09:59:58;9.68;;;4.72;;
22026;SDS011;11177;50.966;10.070;2023-02-03T10:02:42;9.18;;;4.57;;
22026;SDS011;11177;50.966;10.070;2023-02-03T10:05:19;8.63;;;5.03;;
22026;SDS011;11177;50.966;10.070;2023-02-03T10:07:56;8.38;;;5.05;;
22026;SDS011;11177;50.966;10.070;2023-02-03T10:10:40;6.78;;;5.07;;
22026;SDS011;11177;50.966;10.070;2023-02-03T10:13:16;11.52;;;5.03;;
22026;SDS011;11177;50.966;10.070;2023-02-03T10:16:03;7.90;;;4.90;;
22026;SDS011;11177;50.966;10.070;2023-02-03T10:18:55;9.85;;;4.93;;
22026;SDS011;11177;50.966;10.070;2023-02-03T10:21:31;8.73;;;5.22;;
22026;SDS011;11177;50.966;10.070;2023-02-03T10:24:05;8.55;;;4.40;;
22026;SDS011;11177;50.966;10.070;2023-02-03T10:26:39;7.32;;;4.43;;
22026;SDS011;11177;50.966;10.070;2023-02-03T10:29:15;6.75;;;4.70;;
22026;SDS011;11177;50.966;10.070;2023-02-03T10:31:47;9.15;;;4.90;;
22026;SDS011;11177;50.966;10.070;2023-02-03T10:34:16;7.35;;;4.00;;
22026;SDS011;11177;50.966;10.070;2023-02-03T10:36:47;6.85;;;4.15;;
22026;SDS011;11177;50.966;10.070;2023-02-03T10:39:40;6.07;;;3.80;;
22026;SDS011;11177;50.966;10.070;2023-02-03T10:42:10;5.43;;;4.10;;
22026;SDS011;11177;50.966;10.070;2023-02-03T10:44:39;7.28;;;4.20;;
22026;SDS011;11177;50.966;10.070;2023-02-03T10:47:33;6.55;;;3.80;;
22026;SDS011;11177;50.966;10.070;2023-02-03T10:50:04;6.82;;;3.85;;
22026;SDS011;11177;50.966;10.070;2023-02-03T10:52:34;4.28;;;3.40;;
22026;SDS011;11177;50.966;10.070;2023-02-03T10:55:04;6.85;;;3.60;;
22026;SDS011;11177;50.966;10.070;2023-02-03T10:57:34;4.68;;;3.60;;
22026;SDS011;11177;50.966;10.070;2023-02-03T11:00:03;4.55;;;3.50;;
22026;SDS011;11177;50.966;10.070;2023-02-03T11:02:32;4.28;;;3.20;;
22026;SDS011;11177;50.966;10.070;2023-02-03T11:05:19;4.70;;;3.22;;
22026;SDS011;11177;50.966;10.070;2023-02-03T11:07:46;4.28;;;3.13;;
22026;SDS011;11177;50.966;10.070;2023-02-03T11:13:23;5.75;;;3.75;;
22026;SDS011;11177;50.966;10.070;2023-02-03T11:18:26;4.20;;;2.88;;
22026;SDS011;11177;50.966;10.070;2023-02-03T11:23:25;2.88;;;2.05;;
22026;SDS011;11177;50.966;10.070;2023-02-03T11:25:52;2.80;;;2.10;;
22026;SDS011;11177;50.966;10.070;2023-02-03T11:28:19;3.15;;;2.13;;
22026;SDS011;11177;50.966;10.070;2023-02-03T11:30:53;2.72;;;1.98;;
22026;SDS011;11177;50.966;10.070;2023-02-03T11:33:21;5.70;;;2.03;;
22026;SDS011;11177;50.966;10.070;2023-02-03T11:35:54;2.15;;;1.90;;
22026;SDS011;11177;50.966;10.070;2023-02-03T11:38:27;1.95;;;1.80;;
22026;SDS011;11177;50.966;10.070;2023-02-03T11:40:59;3.72;;;2.13;;
22026;SDS011;11177;50.966;10.070;2023-02-03T11:43:27;3.03;;;2.17;;
22026;SDS011;11177;50.966;10.070;2023-02-03T11:45:59;3.15;;;1.90;;
22026;SDS011;11177;50.966;10.070;2023-02-03T11:48:29;2.75;;;2.03;;
22026;SDS011;11177;50.966;10.070;2023-02-03T11:51:36;2.05;;;1.85;;
22026;SDS011;11177;50.966;10.070;2023-02-03T12:03:11;2.15;;;1.88;;
22026;SDS011;11177;50.966;10.070;2023-02-03T12:05:57;3.60;;;1.50;;
22026;SDS011;11177;50.966;10.070;2023-02-03T12:08:33;2.50;;;1.80;;
22026;SDS011;11177;50.966;10.070;2023-02-03T12:11:28;3.22;;;1.90;;
22026;SDS011;11177;50.966;10.070;2023-02-03T12:14:10;3.70;;;2.30;;
22026;SDS011;11177;50.966;10.070;2023-02-03T12:20:14;3.50;;;1.60;;
22026;SDS011;11177;50.966;10.070;2023-02-03T12:23:03;1.50;;;1.30;;
22026;SDS011;11177;50.966;10.070;2023-02-03T12:25:51;1.63;;;1.50;;
22026;SDS011;11177;50.966;10.070;2023-02-03T12:28:49;3.95;;;1.30;;
22026;SDS011;11177;50.966;10.070;2023-02-03T12:31:20;1.30;;;1.20;;
22026;SDS011;11177;50.966;10.070;2023-02-03T12:34:59;4.60;;;1.13;;
22026;SDS011;11177;50.966;10.070;2023-02-03T12:36:59;2.58;;;1.10;;
22026;SDS011;11177;50.966;10.070;2023-02-03T12:39:37;1.58;;;1.20;;
22026;SDS011;11177;50.966;10.070;2023-02-03T12:42:12;1.65;;;1.40;;
22026;SDS011;11177;50.966;10.070;2023-02-03T12:44:47;1.67;;;1.20;;
22026;SDS011;11177;50.966;10.070;2023-02-03T12:47:29;2.45;;;1.42;;
22026;SDS011;11177;50.966;10.070;2023-02-03T12:50:02;2.27;;;1.30;;
22026;SDS011;11177;50.966;10.070;2023-02-03T12:52:39;1.77;;;1.00;;
22026;SDS011;11177;50.966;10.070;2023-02-03T12:58:15;4.25;;;1.20;;
22026;SDS011;11177;50.966;10.070;2023-02-03T13:06:31;4.03;;;1.60;;
22026;SDS011;11177;50.966;10.070;2023-02-03T13:09:20;3.87;;;1.50;;
22026;SDS011;11177;50.966;10.070;2023-02-03T13:12:13;1.40;;;1.30;;
22026;SDS011;11177;50.966;10.070;2023-02-03T13:15:34;2.58;;;1.60;;
22026;SDS011;11177;50.966;10.070;2023-02-03T13:21:00;1.73;;;1.48;;
22026;SDS011;11177;50.966;10.070;2023-02-03T13:23:26;1.50;;;1.40;;
22026;SDS011;11177;50.966;10.070;2023-02-03T13:32:49;2.25;;;1.67;;
22026;SDS011;11177;50.966;10.070;2023-02-03T13:35:14;2.63;;;1.80;;
22026;SDS011;11177;50.966;10.070;2023-02-03T13:38:44;5.57;;;2.30;;
22026;SDS011;11177;50.966;10.070;2023-02-03T13:41:20;2.47;;;2.20;;
22026;SDS011;11177;50.966;10.070;2023-02-03T13:43:53;3.50;;;2.30;;
22026;SDS011;11177;50.966;10.070;2023-02-03T13:46:23;7.80;;;2.78;;
22026;SDS011;11177;50.966;10.070;2023-02-03T13:48:52;2.63;;;2.22;;
22026;SDS011;11177;50.966;10.070;2023-02-03T13:51:20;5.90;;;3.20;;
22026;SDS011;11177;50.966;10.070;2023-02-03T13:53:49;3.88;;;3.28;;
22026;SDS011;11177;50.966;10.070;2023-02-03T13:56:22;4.95;;;2.67;;
22026;SDS011;11177;50.966;10.070;2023-02-03T13:58:57;5.47;;;2.78;;
22026;SDS011;11177;50.966;10.070;2023-02-03T14:01:35;3.63;;;2.85;;
22026;SDS011;11177;50.966;10.070;2023-02-03T14:04:05;2.50;;;2.10;;
22026;SDS011;11177;50.966;10.070;2023-02-03T14:10:18;3.00;;;2.70;;
22026;SDS011;11177;50.966;10.070;2023-02-03T14:15:44;2.53;;;2.05;;
22026;SDS011;11177;50.966;10.070;2023-02-03T14:18:29;2.67;;;2.10;;
22026;SDS011;11177;50.966;10.070;2023-02-03T14:21:08;2.72;;;2.30;;
22026;SDS011;11177;50.966;10.070;2023-02-03T14:23:41;3.03;;;2.25;;
22026;SDS011;11177;50.966;10.070;2023-02-03T14:26:23;5.50;;;1.98;;
22026;SDS011;11177;50.966;10.070;2023-02-03T14:28:55;7.57;;;1.95;;
22026;SDS011;11177;50.966;10.070;2023-02-03T14:31:23;2.38;;;1.33;;
22026;SDS011;11177;50.966;10.070;2023-02-03T14:34:04;4.80;;;1.63;;
22026;SDS011;11177;50.966;10.070;2023-02-03T14:36:48;7.65;;;1.38;;
22026;SDS011;11177;50.966;10.070;2023-02-03T14:39:39;8.68;;;1.60;;
22026;SDS011;11177;50.966;10.070;2023-02-03T14:45:39;4.35;;;1.30;;
22026;SDS011;11177;50.966;10.070;2023-02-03T14:48:51;7.47;;;1.52;;
22026;SDS011;11177;50.966;10.070;2023-02-03T14:51:32;5.85;;;1.65;;
22026;SDS011;11177;50.966;10.070;2023-02-03T14:54:30;7.68;;;1.65;;
22026;SDS011;11177;50.966;10.070;2023-02-03T14:57:12;9.65;;;1.50;;
22026;SDS011;11177;50.966;10.070;2023-02-03T15:00:29;8.80;;;1.73;;
22026;SDS011;11177;50.966;10.070;2023-02-03T15:05:57;9.95;;;2.03;;
22026;SDS011;11177;50.966;10.070;2023-02-03T15:08:30;8.65;;;1.60;;
22026;SDS011;11177;50.966;10.070;2023-02-03T15:14:20;12.10;;;2.40;;
22026;SDS011;11177;50.966;10.070;2023-02-03T15:17:01;10.82;;;1.85;;
22026;SDS011;11177;50.966;10.070;2023-02-03T15:19:33;8.45;;;1.80;;
22026;SDS011;11177;50.966;10.070;2023-02-03T15:22:25;9.02;;;1.90;;
22026;SDS011;11177;50.966;10.070;2023-02-03T15:24:57;9.85;;;1.75;;
22026;SDS011;11177;50.966;10.070;2023-02-03T15:27:26;15.07;;;2.50;;
22026;SDS011;11177;50.966;10.070;2023-02-03T15:29:54;14.02;;;4.47;;
22026;SDS011;11177;50.966;10.070;2023-02-03T15:32:32;13.38;;;2.03;;
22026;SDS011;11177;50.966;10.070;2023-02-03T15:35:01;16.27;;;3.08;;
22026;SDS011;11177;50.966;10.070;2023-02-03T15:37:32;13.88;;;2.22;;
22026;SDS011;11177;50.966;10.070;2023-02-03T15:40:06;18.83;;;2.40;;
22026;SDS011;11177;50.966;10.070;2023-02-03T15:42:53;8.25;;;1.88;;
22026;SDS011;11177;50.966;10.070;2023-02-03T15:48:48;10.63;;;1.85;;
22026;SDS011;11177;50.966;10.070;2023-02-03T15:51:18;13.13;;;2.65;;
22026;SDS011;11177;50.966;10.070;2023-02-03T15:53:58;13.38;;;1.95;;
22026;SDS011;11177;50.966;10.070;2023-02-03T15:56:42;8.00;;;2.00;;
22026;SDS011;11177;50.966;10.070;2023-02-03T15:59:17;8.38;;;2.03;;
22026;SDS011;11177;50.966;10.070;2023-02-03T16:02:06;14.68;;;2.45;;
22026;SDS011;11177;50.966;10.070;2023-02-03T16:04:40;9.68;;;1.67;;
22026;SDS011;11177;50.966;10.070;2023-02-03T16:07:11;15.05;;;1.90;;
22026;SDS011;11177;50.966;10.070;2023-02-03T16:09:44;14.65;;;2.30;;
22026;SDS011;11177;50.966;10.070;2023-02-03T16:12:21;12.38;;;1.77;;
22026;SDS011;11177;50.966;10.070;2023-02-03T16:14:58;10.32;;;1.63;;
22026;SDS011;11177;50.966;10.070;2023-02-03T16:17:28;11.25;;;2.13;;
22026;SDS011;11177;50.966;10.070;2023-02-03T16:20:19;9.65;;;1.65;;
22026;SDS011;11177;50.966;10.070;2023-02-03T16:23:04;11.52;;;2.08;;
22026;SDS011;11177;50.966;10.070;2023-02-03T16:26:05;8.15;;;1.70;;
22026;SDS011;11177;50.966;10.070;2023-02-03T16:28:54;12.88;;;2.10;;